Madre Pilar — EA3035 — position and weather

sailwx.info

Track history (hours):
 
Tides and Currents Weather Stations Pressure Air Temp Water Temp Dewpoint Dewpoint Depression Visibility Wind Speed Wind Dir Waves Ship Positions

Madre Pilar

Last reported at 2017-Dec-09 07:41 UTC. Time now 2017-Dec-11 11:20 UTC.
Position N 43°48' W 007°57'.

Length 20 m.

Type: Fishing. MMSI: 224139890.

Date/timePositionNaut miles runAvg speedWind from/ knotsBaromVisibWave heightAir tempDewpointWater temp
2017-Dec-09 07:41N 43°48' W 007°57'1 8.2
2017-Dec-09 07:30N 43°49' W 007°55'5 8.3
2017-Dec-09 06:52N 43°49' W 007°48'3 8.6
2017-Dec-09 06:29N 43°49' W 007°43'4 8.8
2017-Dec-09 06:00N 43°49' W 007°37'4 8.4
2017-Dec-09 05:31N 43°49' W 007°32'67 8.6
2017-Dec-08 21:45N 43°43' W 005°60'2 8.2
2017-Dec-08 21:30N 43°43' W 005°57'4 8.2
2017-Dec-08 20:57N 43°43' W 005°51'4 8.3
2017-Dec-08 20:30N 43°42' W 005°46'4 8.3
2017-Dec-08 20:00N 43°42' W 005°40'5 8.4
2017-Dec-08 19:27N 43°42' W 005°34'4 8.3
2017-Dec-08 19:00N 43°41' W 005°28'69 8.1
2017-Dec-08 10:28N 43°36' W 003°53'4 8.0
2017-Dec-08 09:59N 43°35' W 003°47'4 8.1
2017-Dec-08 09:31N 43°35' W 003°42'4 8.3
2017-Dec-08 09:00N 43°33' W 003°37'4 7.9
2017-Dec-08 08:30N 43°32' W 003°32'4 7.4
2017-Dec-08 08:01N 43°30' W 003°27'4 7.1
2017-Dec-08 07:30N 43°27' W 003°25'2 3.9
2017-Dec-08 07:00N 43°27' W 003°28'0 0.0
2017-Dec-08 06:30N 43°27' W 003°28'0 0.0
2017-Dec-07 23:56N 43°26' W 003°28'2 5.9
2017-Dec-07 23:30N 43°27' W 003°24'4 8.3
2017-Dec-07 23:01N 43°29' W 003°20'4 7.9
2017-Dec-07 22:30N 43°32' W 003°16'4 7.8
2017-Dec-07 22:01N 43°34' W 003°11'4 7.5
2017-Dec-07 21:30N 43°36' W 003°07'0 0.3
2017-Dec-07 21:00N 43°36' W 003°07'0 0.8
2017-Dec-07 20:30N 43°36' W 003°07'0 0.7
2017-Dec-07 20:00N 43°36' W 003°06'0 0.8
2017-Dec-07 19:31N 43°36' W 003°06'0 0.7
2017-Dec-07 19:00N 43°36' W 003°05'0 0.6
2017-Dec-07 18:31N 43°36' W 003°05'2 3.9
2017-Dec-07 18:01N 43°36' W 003°02'3 5.5
2017-Dec-07 17:30N 43°36' W 002°58'0 0.8
2017-Dec-07 17:00N 43°36' W 002°58'0 0.8
2017-Dec-07 16:31N 43°37' W 002°57'0 0.8
2017-Dec-07 16:00N 43°37' W 002°57'0 0.7
2017-Dec-07 15:30N 43°37' W 002°56'0 0.7
2017-Dec-07 15:00N 43°36' W 002°56'0 0.5
2017-Dec-07 14:30N 43°36' W 002°56'3 6.8
2017-Dec-07 14:01N 43°36' W 002°52'0 1.0
2017-Dec-07 13:31N 43°36' W 002°51'0 0.5
2017-Dec-07 13:01N 43°36' W 002°51'1 1.6
2017-Dec-07 12:30N 43°36' W 002°52'0 0.3
2017-Dec-07 12:01N 43°36' W 002°51'0 0.7
2017-Dec-07 11:30N 43°36' W 002°51'0 0.7
2017-Dec-07 11:00N 43°36' W 002°51'0 0.4
2017-Dec-07 10:31N 43°36' W 002°50'1 1.0
2017-Dec-07 10:01N 43°36' W 002°50'1 1.1
2017-Dec-07 09:31N 43°36' W 002°50'1 1.1
2017-Dec-07 09:00N 43°36' W 002°51'4 6.7
2017-Dec-07 08:29N 43°36' W 002°56'3 7.0
2017-Dec-07 08:00N 43°36' W 003°01'3 6.8
2017-Dec-07 07:30N 43°36' W 003°05'1 2.1
2017-Dec-07 07:00N 43°36' W 003°07'2 3.1
2017-Dec-07 06:30N 43°36' W 003°05'4 8.2
2017-Dec-07 06:01N 43°36' W 002°59'2 3.9
2017-Dec-07 05:30N 43°37' W 002°56'2 4.3
2017-Dec-07 05:01N 43°36' W 002°54'1 1.8
2017-Dec-07 04:28N 43°36' W 002°52'2 3.6
2017-Dec-07 04:01N 43°36' W 002°50'4 7.7
2017-Dec-07 03:30N 43°39' W 002°47'4 7.8
2017-Dec-07 03:01N 43°42' W 002°43'4 8.0
2017-Dec-07 02:31N 43°45' W 002°40'4 8.2
2017-Dec-07 02:01N 43°48' W 002°36'4 8.3
2017-Dec-07 01:30N 43°51' W 002°32'4 8.5
2017-Dec-07 01:00N 43°55' W 002°29'4 8.4
2017-Dec-07 00:31N 43°58' W 002°26'4 8.3
2017-Dec-07 00:00N 44°01' W 002°22'4 8.4
2017-Dec-06 23:30N 44°05' W 002°18'4 8.7
2017-Dec-06 23:00N 44°08' W 002°15'4 8.8
2017-Dec-06 22:30N 44°12' W 002°11'4 8.7
2017-Dec-06 22:00N 44°15' W 002°07'2 3.7
2017-Dec-06 21:31N 44°16' W 002°05'0 0.5
2017-Dec-06 21:00N 44°16' W 002°06'  
2017-Dec-04 10:31N 44°17' W 002°06'0 0.2
2017-Dec-04 09:27N 44°17' W 002°06'0 0.5
2017-Dec-04 08:30N 44°17' W 002°07'0 0.6
2017-Dec-04 08:01N 44°17' W 002°07'1 1.5
2017-Dec-04 07:30N 44°16' W 002°07'0 0.4
2017-Dec-04 07:00N 44°16' W 002°07'0 0.6
2017-Dec-04 06:30N 44°17' W 002°07'1 1.9
2017-Dec-04 06:00N 44°16' W 002°06'1 2.8
2017-Dec-04 05:30N 44°15' W 002°05'2 2.9
2017-Dec-04 04:42N 44°17' W 002°06'1 3.2
2017-Dec-04 04:30N 44°17' W 002°07'0 0.2
2017-Dec-04 04:00N 44°17' W 002°07'1 2.7
2017-Dec-04 03:31N 44°17' W 002°05'0 1.0
2017-Dec-04 03:00N 44°16' W 002°06'0 0.5
2017-Dec-04 02:31N 44°16' W 002°06'0 0.4
2017-Dec-04 02:00N 44°17' W 002°06'0 0.5
2017-Dec-04 01:30N 44°17' W 002°06'1 2.2
2017-Dec-04 01:00N 44°16' W 002°05'0 0.7
2017-Dec-04 00:30N 44°16' W 002°05'0 0.7
2017-Dec-04 00:00N 44°17' W 002°05'1 2.5
2017-Dec-03 23:30N 44°15' W 002°04'0 0.3
2017-Dec-03 23:01N 44°15' W 002°04'0 0.8
2017-Dec-03 22:30N 44°16' W 002°05'0 0.8
2017-Dec-03 22:00N 44°16' W 002°05'0 0.4
2017-Dec-03 21:30N 44°16' W 002°05'0 0.5
2017-Dec-03 21:01N 44°16' W 002°05'0 0.4
2017-Dec-03 20:30N 44°16' W 002°05'0 0.7
2017-Dec-03 20:00N 44°15' W 002°05'0 0.7
2017-Dec-03 19:30N 44°15' W 002°05'0 0.7
2017-Dec-03 19:00N 44°15' W 002°04'0 0.7
2017-Dec-03 18:30N 44°15' W 002°04'0 0.7
2017-Dec-03 18:00N 44°14' W 002°04'0 0.8
2017-Dec-03 17:30N 44°14' W 002°03'0 0.2
2017-Dec-03 17:00N 44°14' W 002°03'0 0.2
2017-Dec-03 16:30N 44°14' W 002°03'0 0.7
2017-Dec-03 16:00N 44°14' W 002°03'0 0.8
2017-Dec-03 15:30N 44°14' W 002°04'0 0.6
2017-Dec-03 14:49N 44°14' W 002°04'0 0.1
2017-Dec-03 14:30N 44°14' W 002°04'3 6.5
2017-Dec-03 14:00N 44°17' W 002°06'1 2.2
2017-Dec-03 13:30N 44°18' W 002°07'0 0.5
2017-Dec-03 13:00N 44°17' W 002°07'0 0.6
2017-Dec-03 12:30N 44°17' W 002°07'0 0.7
2017-Dec-03 12:00N 44°17' W 002°07'0 0.8
2017-Dec-03 11:30N 44°17' W 002°06'0 0.9
2017-Dec-03 11:00N 44°17' W 002°06'0 0.2
2017-Dec-03 10:31N 44°17' W 002°05'0 0.6
2017-Dec-03 10:00N 44°16' W 002°06'0 0.5
2017-Dec-03 09:29N 44°17' W 002°06'0 0.1
2017-Dec-03 09:00N 44°17' W 002°06'0 0.7
2017-Dec-03 08:30N 44°16' W 002°06'0 0.6
2017-Dec-03 07:58N 44°17' W 002°06'1 2.1
2017-Dec-03 07:30N 44°16' W 002°07'0 1.0
2017-Dec-03 07:00N 44°17' W 002°07'0 0.7
2017-Dec-03 06:30N 44°17' W 002°07'0 0.7
2017-Dec-03 06:00N 44°17' W 002°07'1 1.1
2017-Dec-03 05:30N 44°17' W 002°07'2 3.5
2017-Dec-03 05:00N 44°16' W 002°05'1 2.4
2017-Dec-03 04:30N 44°15' W 002°05'2 3.7
2017-Dec-03 03:59N 44°14' W 002°02'1 2.9
2017-Dec-03 03:30N 44°14' W 002°04'0 0.1
2017-Dec-03 03:00N 44°14' W 002°04'0 0.4
2017-Dec-03 02:31N 44°14' W 002°04'0 0.2
2017-Dec-03 02:00N 44°14' W 002°04'1 0.8
2017-Dec-03 01:15N 44°13' W 002°04'0 0.5
2017-Dec-03 00:55N 44°14' W 002°04'0 0.5
2017-Dec-03 00:20N 44°14' W 002°04'1 2.1
2017-Dec-03 00:00N 44°13' W 002°05'0 0.3
2017-Dec-02 23:30N 44°14' W 002°05'0 0.3
2017-Dec-02 23:00N 44°14' W 002°05'0 0.2
2017-Dec-02 22:31N 44°14' W 002°04'0 0.7
2017-Dec-02 22:00N 44°14' W 002°05'4 7.7
2017-Dec-02 21:30N 44°12' W 002°10'4 7.8
2017-Dec-02 21:00N 44°10' W 002°14'4 7.7
2017-Dec-02 20:30N 44°08' W 002°19'4 7.4
2017-Dec-02 20:00N 44°06' W 002°24'3 6.6
2017-Dec-02 19:30N 44°04' W 002°27'3 7.0
2017-Dec-02 19:01N 44°02' W 002°31'4 7.0
2017-Dec-02 18:30N 44°00' W 002°35'6 6.9
2017-Dec-02 17:40N 43°57' W 002°41'1 3.8
2017-Dec-02 17:31N 43°56' W 002°42'3 6.5
2017-Dec-02 17:00N 43°54' W 002°46'4 7.0
2017-Dec-02 16:30N 43°52' W 002°50'3 7.0
2017-Dec-02 16:00N 43°50' W 002°53'4 7.0
2017-Dec-02 15:26N 43°47' W 002°58'3 6.9
2017-Dec-02 15:00N 43°45' W 003°01'4 6.3
2017-Dec-02 14:26N 43°43' W 003°04'3 6.5
2017-Dec-02 14:00N 43°41' W 003°07'3 6.3
2017-Dec-02 13:29N 43°38' W 003°10'3 6.2
2017-Dec-02 12:59N 43°36' W 003°13'3 6.3
2017-Dec-02 12:30N 43°34' W 003°16'3 6.5
2017-Dec-02 12:00N 43°31' W 003°19'3 6.7
2017-Dec-02 11:30N 43°29' W 003°22'5 0.1
2017-Nov-30 09:39N 43°27' W 003°28'0 0.0
2017-Nov-30 09:30N 43°27' W 003°28'0 0.0
2017-Nov-30 09:00N 43°27' W 003°28'0 0.0
2017-Nov-30 08:30N 43°27' W 003°28'0 0.0
2017-Nov-30 08:00N 43°27' W 003°28'0 0.0
2017-Nov-30 07:30N 43°27' W 003°28'0 0.0
2017-Nov-30 07:00N 43°27' W 003°28'0 0.0
2017-Nov-30 06:30N 43°27' W 003°28'0 0.0
2017-Nov-30 06:00N 43°27' W 003°28'55 5.8
2017-Nov-29 20:33N 44°07' W 002°36'0 8.6
2017-Nov-29 20:30N 44°07' W 002°35'5 8.5
2017-Nov-29 19:55N 44°11' W 002°31'4 8.6
2017-Nov-29 19:29N 44°13' W 002°27'22 5.3
2017-Nov-29 15:23N 44°28' W 002°05'0 0.6
2017-Nov-29 14:59N 44°28' W 002°05'0 0.7
2017-Nov-29 14:24N 44°28' W 002°06'0 0.8
2017-Nov-29 13:58N 44°28' W 002°06'0 0.8
2017-Nov-29 13:30N 44°27' W 002°06'0 0.7
2017-Nov-29 13:00N 44°27' W 002°07'0 0.8
2017-Nov-29 12:28N 44°27' W 002°08'0 0.8
2017-Nov-29 11:58N 44°27' W 002°08'1 0.7
2017-Nov-29 11:16N 44°27' W 002°09'0 0.8
2017-Nov-29 11:00N 44°27' W 002°09'0 0.7
2017-Nov-29 10:30N 44°27' W 002°09'0 0.5
2017-Nov-29 10:00N 44°27' W 002°09'0 0.2
2017-Nov-29 09:20N 44°27' W 002°09'0 0.6
2017-Nov-29 08:56N 44°27' W 002°10'0 0.5
2017-Nov-29 08:30N 44°27' W 002°10'0 0.4
2017-Nov-29 07:46N 44°26' W 002°09'  
Track history (hours):
 
Tides and Currents Weather Stations Pressure Air Temp Water Temp Dewpoint Dewpoint Depression Visibility Wind Speed Wind Dir Waves Ship Positions

Madre Pilar

Last reported at 2017-Dec-09 07:41 UTC. Time now 2017-Dec-11 11:20 UTC.
Position N 43°48' W 007°57'.

Length 20 m.

Type: Fishing. MMSI: 224139890.

Date/timePositionNaut miles runAvg speedWind from/ knotsBaromVisibWave heightAir tempDewpointWater temp
2017-Dec-09 07:41N 43°48' W 007°57'1 8.2
2017-Dec-09 07:30N 43°49' W 007°55'5 8.3
2017-Dec-09 06:52N 43°49' W 007°48'3 8.6
2017-Dec-09 06:29N 43°49' W 007°43'4 8.8
2017-Dec-09 06:00N 43°49' W 007°37'4 8.4
2017-Dec-09 05:31N 43°49' W 007°32'67 8.6
2017-Dec-08 21:45N 43°43' W 005°60'2 8.2
2017-Dec-08 21:30N 43°43' W 005°57'4 8.2
2017-Dec-08 20:57N 43°43' W 005°51'4 8.3
2017-Dec-08 20:30N 43°42' W 005°46'4 8.3
2017-Dec-08 20:00N 43°42' W 005°40'5 8.4
2017-Dec-08 19:27N 43°42' W 005°34'4 8.3
2017-Dec-08 19:00N 43°41' W 005°28'69 8.1
2017-Dec-08 10:28N 43°36' W 003°53'4 8.0
2017-Dec-08 09:59N 43°35' W 003°47'4 8.1
2017-Dec-08 09:31N 43°35' W 003°42'4 8.3
2017-Dec-08 09:00N 43°33' W 003°37'4 7.9
2017-Dec-08 08:30N 43°32' W 003°32'4 7.4
2017-Dec-08 08:01N 43°30' W 003°27'4 7.1
2017-Dec-08 07:30N 43°27' W 003°25'2 3.9
2017-Dec-08 07:00N 43°27' W 003°28'0 0.0
2017-Dec-08 06:30N 43°27' W 003°28'0 0.0
2017-Dec-07 23:56N 43°26' W 003°28'2 5.9
2017-Dec-07 23:30N 43°27' W 003°24'4 8.3
2017-Dec-07 23:01N 43°29' W 003°20'4 7.9
2017-Dec-07 22:30N 43°32' W 003°16'4 7.8
2017-Dec-07 22:01N 43°34' W 003°11'4 7.5
2017-Dec-07 21:30N 43°36' W 003°07'0 0.3
2017-Dec-07 21:00N 43°36' W 003°07'0 0.8
2017-Dec-07 20:30N 43°36' W 003°07'0 0.7
2017-Dec-07 20:00N 43°36' W 003°06'0 0.8
2017-Dec-07 19:31N 43°36' W 003°06'0 0.7
2017-Dec-07 19:00N 43°36' W 003°05'0 0.6
2017-Dec-07 18:31N 43°36' W 003°05'2 3.9
2017-Dec-07 18:01N 43°36' W 003°02'3 5.5
2017-Dec-07 17:30N 43°36' W 002°58'0 0.8
2017-Dec-07 17:00N 43°36' W 002°58'0 0.8
2017-Dec-07 16:31N 43°37' W 002°57'0 0.8
2017-Dec-07 16:00N 43°37' W 002°57'0 0.7
2017-Dec-07 15:30N 43°37' W 002°56'0 0.7
2017-Dec-07 15:00N 43°36' W 002°56'0 0.5
2017-Dec-07 14:30N 43°36' W 002°56'3 6.8
2017-Dec-07 14:01N 43°36' W 002°52'0 1.0
2017-Dec-07 13:31N 43°36' W 002°51'0 0.5
2017-Dec-07 13:01N 43°36' W 002°51'1 1.6
2017-Dec-07 12:30N 43°36' W 002°52'0 0.3
2017-Dec-07 12:01N 43°36' W 002°51'0 0.7
2017-Dec-07 11:30N 43°36' W 002°51'0 0.7
2017-Dec-07 11:00N 43°36' W 002°51'0 0.4
2017-Dec-07 10:31N 43°36' W 002°50'1 1.0
2017-Dec-07 10:01N 43°36' W 002°50'1 1.1
2017-Dec-07 09:31N 43°36' W 002°50'1 1.1
2017-Dec-07 09:00N 43°36' W 002°51'4 6.7
2017-Dec-07 08:29N 43°36' W 002°56'3 7.0
2017-Dec-07 08:00N 43°36' W 003°01'3 6.8
2017-Dec-07 07:30N 43°36' W 003°05'1 2.1
2017-Dec-07 07:00N 43°36' W 003°07'2 3.1
2017-Dec-07 06:30N 43°36' W 003°05'4 8.2
2017-Dec-07 06:01N 43°36' W 002°59'2 3.9
2017-Dec-07 05:30N 43°37' W 002°56'2 4.3
2017-Dec-07 05:01N 43°36' W 002°54'1 1.8
2017-Dec-07 04:28N 43°36' W 002°52'2 3.6
2017-Dec-07 04:01N 43°36' W 002°50'4 7.7
2017-Dec-07 03:30N 43°39' W 002°47'4 7.8
2017-Dec-07 03:01N 43°42' W 002°43'4 8.0
2017-Dec-07 02:31N 43°45' W 002°40'4 8.2
2017-Dec-07 02:01N 43°48' W 002°36'4 8.3
2017-Dec-07 01:30N 43°51' W 002°32'4 8.5
2017-Dec-07 01:00N 43°55' W 002°29'4 8.4
2017-Dec-07 00:31N 43°58' W 002°26'4 8.3
2017-Dec-07 00:00N 44°01' W 002°22'4 8.4
2017-Dec-06 23:30N 44°05' W 002°18'4 8.7
2017-Dec-06 23:00N 44°08' W 002°15'4 8.8
2017-Dec-06 22:30N 44°12' W 002°11'4 8.7
2017-Dec-06 22:00N 44°15' W 002°07'2 3.7
2017-Dec-06 21:31N 44°16' W 002°05'0 0.5
2017-Dec-06 21:00N 44°16' W 002°06'  
2017-Dec-04 10:31N 44°17' W 002°06'0 0.2
2017-Dec-04 09:27N 44°17' W 002°06'0 0.5
2017-Dec-04 08:30N 44°17' W 002°07'0 0.6
2017-Dec-04 08:01N 44°17' W 002°07'1 1.5
2017-Dec-04 07:30N 44°16' W 002°07'0 0.4
2017-Dec-04 07:00N 44°16' W 002°07'0 0.6
2017-Dec-04 06:30N 44°17' W 002°07'1 1.9
2017-Dec-04 06:00N 44°16' W 002°06'1 2.8
2017-Dec-04 05:30N 44°15' W 002°05'2 2.9
2017-Dec-04 04:42N 44°17' W 002°06'1 3.2
2017-Dec-04 04:30N 44°17' W 002°07'0 0.2
2017-Dec-04 04:00N 44°17' W 002°07'1 2.7
2017-Dec-04 03:31N 44°17' W 002°05'0 1.0
2017-Dec-04 03:00N 44°16' W 002°06'0 0.5
2017-Dec-04 02:31N 44°16' W 002°06'0 0.4
2017-Dec-04 02:00N 44°17' W 002°06'0 0.5
2017-Dec-04 01:30N 44°17' W 002°06'1 2.2
2017-Dec-04 01:00N 44°16' W 002°05'0 0.7
2017-Dec-04 00:30N 44°16' W 002°05'0 0.7
2017-Dec-04 00:00N 44°17' W 002°05'1 2.5
2017-Dec-03 23:30N 44°15' W 002°04'0 0.3
2017-Dec-03 23:01N 44°15' W 002°04'0 0.8
2017-Dec-03 22:30N 44°16' W 002°05'0 0.8
2017-Dec-03 22:00N 44°16' W 002°05'0 0.4
2017-Dec-03 21:30N 44°16' W 002°05'0 0.5
2017-Dec-03 21:01N 44°16' W 002°05'0 0.4
2017-Dec-03 20:30N 44°16' W 002°05'0 0.7
2017-Dec-03 20:00N 44°15' W 002°05'0 0.7
2017-Dec-03 19:30N 44°15' W 002°05'0 0.7
2017-Dec-03 19:00N 44°15' W 002°04'0 0.7
2017-Dec-03 18:30N 44°15' W 002°04'0 0.7
2017-Dec-03 18:00N 44°14' W 002°04'0 0.8
2017-Dec-03 17:30N 44°14' W 002°03'0 0.2
2017-Dec-03 17:00N 44°14' W 002°03'0 0.2
2017-Dec-03 16:30N 44°14' W 002°03'0 0.7
2017-Dec-03 16:00N 44°14' W 002°03'0 0.8
2017-Dec-03 15:30N 44°14' W 002°04'0 0.6
2017-Dec-03 14:49N 44°14' W 002°04'0 0.1
2017-Dec-03 14:30N 44°14' W 002°04'3 6.5
2017-Dec-03 14:00N 44°17' W 002°06'1 2.2
2017-Dec-03 13:30N 44°18' W 002°07'0 0.5
2017-Dec-03 13:00N 44°17' W 002°07'0 0.6
2017-Dec-03 12:30N 44°17' W 002°07'0 0.7
2017-Dec-03 12:00N 44°17' W 002°07'0 0.8
2017-Dec-03 11:30N 44°17' W 002°06'0 0.9
2017-Dec-03 11:00N 44°17' W 002°06'0 0.2
2017-Dec-03 10:31N 44°17' W 002°05'0 0.6
2017-Dec-03 10:00N 44°16' W 002°06'0 0.5
2017-Dec-03 09:29N 44°17' W 002°06'0 0.1
2017-Dec-03 09:00N 44°17' W 002°06'0 0.7
2017-Dec-03 08:30N 44°16' W 002°06'0 0.6
2017-Dec-03 07:58N 44°17' W 002°06'1 2.1
2017-Dec-03 07:30N 44°16' W 002°07'0 1.0
2017-Dec-03 07:00N 44°17' W 002°07'0 0.7
2017-Dec-03 06:30N 44°17' W 002°07'0 0.7
2017-Dec-03 06:00N 44°17' W 002°07'1 1.1
2017-Dec-03 05:30N 44°17' W 002°07'2 3.5
2017-Dec-03 05:00N 44°16' W 002°05'1 2.4
2017-Dec-03 04:30N 44°15' W 002°05'2 3.7
2017-Dec-03 03:59N 44°14' W 002°02'1 2.9
2017-Dec-03 03:30N 44°14' W 002°04'0 0.1
2017-Dec-03 03:00N 44°14' W 002°04'0 0.4
2017-Dec-03 02:31N 44°14' W 002°04'0 0.2
2017-Dec-03 02:00N 44°14' W 002°04'1 0.8
2017-Dec-03 01:15N 44°13' W 002°04'0 0.5
2017-Dec-03 00:55N 44°14' W 002°04'0 0.5
2017-Dec-03 00:20N 44°14' W 002°04'1 2.1
2017-Dec-03 00:00N 44°13' W 002°05'0 0.3
2017-Dec-02 23:30N 44°14' W 002°05'0 0.3
2017-Dec-02 23:00N 44°14' W 002°05'0 0.2
2017-Dec-02 22:31N 44°14' W 002°04'0 0.7
2017-Dec-02 22:00N 44°14' W 002°05'4 7.7
2017-Dec-02 21:30N 44°12' W 002°10'4 7.8
2017-Dec-02 21:00N 44°10' W 002°14'4 7.7
2017-Dec-02 20:30N 44°08' W 002°19'4 7.4
2017-Dec-02 20:00N 44°06' W 002°24'3 6.6
2017-Dec-02 19:30N 44°04' W 002°27'3 7.0
2017-Dec-02 19:01N 44°02' W 002°31'4 7.0
2017-Dec-02 18:30N 44°00' W 002°35'6 6.9
2017-Dec-02 17:40N 43°57' W 002°41'1 3.8
2017-Dec-02 17:31N 43°56' W 002°42'3 6.5
2017-Dec-02 17:00N 43°54' W 002°46'4 7.0
2017-Dec-02 16:30N 43°52' W 002°50'3 7.0
2017-Dec-02 16:00N 43°50' W 002°53'4 7.0
2017-Dec-02 15:26N 43°47' W 002°58'3 6.9
2017-Dec-02 15:00N 43°45' W 003°01'4 6.3
2017-Dec-02 14:26N 43°43' W 003°04'3 6.5
2017-Dec-02 14:00N 43°41' W 003°07'3 6.3
2017-Dec-02 13:29N 43°38' W 003°10'3 6.2
2017-Dec-02 12:59N 43°36' W 003°13'3 6.3
2017-Dec-02 12:30N 43°34' W 003°16'3 6.5
2017-Dec-02 12:00N 43°31' W 003°19'3 6.7
2017-Dec-02 11:30N 43°29' W 003°22'5 0.1
2017-Nov-30 09:39N 43°27' W 003°28'0 0.0
2017-Nov-30 09:30N 43°27' W 003°28'0 0.0
2017-Nov-30 09:00N 43°27' W 003°28'0 0.0
2017-Nov-30 08:30N 43°27' W 003°28'0 0.0
2017-Nov-30 08:00N 43°27' W 003°28'0 0.0
2017-Nov-30 07:30N 43°27' W 003°28'0 0.0
2017-Nov-30 07:00N 43°27' W 003°28'0 0.0
2017-Nov-30 06:30N 43°27' W 003°28'0 0.0
2017-Nov-30 06:00N 43°27' W 003°28'55 5.8
2017-Nov-29 20:33N 44°07' W 002°36'0 8.6
2017-Nov-29 20:30N 44°07' W 002°35'5 8.5
2017-Nov-29 19:55N 44°11' W 002°31'4 8.6
2017-Nov-29 19:29N 44°13' W 002°27'22 5.3
2017-Nov-29 15:23N 44°28' W 002°05'0 0.6
2017-Nov-29 14:59N 44°28' W 002°05'0 0.7
2017-Nov-29 14:24N 44°28' W 002°06'0 0.8
2017-Nov-29 13:58N 44°28' W 002°06'0 0.8
2017-Nov-29 13:30N 44°27' W 002°06'0 0.7
2017-Nov-29 13:00N 44°27' W 002°07'0 0.8
2017-Nov-29 12:28N 44°27' W 002°08'0 0.8
2017-Nov-29 11:58N 44°27' W 002°08'1 0.7
2017-Nov-29 11:16N 44°27' W 002°09'0 0.8
2017-Nov-29 11:00N 44°27' W 002°09'0 0.7
2017-Nov-29 10:30N 44°27' W 002°09'0 0.5
2017-Nov-29 10:00N 44°27' W 002°09'0 0.2
2017-Nov-29 09:20N 44°27' W 002°09'0 0.6
2017-Nov-29 08:56N 44°27' W 002°10'0 0.5
2017-Nov-29 08:30N 44°27' W 002°10'0 0.4
2017-Nov-29 07:46N 44°26' W 002°09'  

Dump ship's entire track history